Time;durP1;ratioP1;P1;durP2;ratioP2;P2;SDS_P1;SDS_P2;PMS_P1;PMS_P2;Temp;Humidity;BMP_temperature;BMP_pressure;BME280_temperature;BME280_humidity;BME280_pressure;Samples;Min_cycle;Max_cycle;Signal;HPM_P1;HPM_P2
2024/02/20 00:01:28;;;;;;;25.58;5.00;;;;;;;5.27;100.00;68965.78;5073886;28;20051;-51
2024/02/20 00:03:57;;;;;;;29.60;5.20;;;;;;;5.20;100.00;68962.81;5070279;28;20040;-50
2024/02/20 00:06:25;;;;;;;28.90;4.57;;;;;;;5.21;100.00;68967.16;5070831;28;20080;-52
2024/02/20 00:08:53;;;;;;;23.45;5.43;;;;;;;5.21;100.00;68967.16;5071757;28;20041;-51
2024/02/20 00:11:21;;;;;;;36.25;6.20;;;;;;;5.23;100.00;68969.47;5071817;28;20040;-61
2024/02/20 00:13:49;;;;;;;29.67;5.18;;;;;;;5.26;100.00;68969.78;5073825;28;20094;-61
2024/02/20 00:16:21;;;;;;;41.10;5.93;;;;;;;5.25;100.00;68968.63;5073983;28;20075;-61
2024/02/20 00:18:52;;;;;;;25.55;5.03;;;;;;;5.23;100.00;68966.31;5074648;28;20048;-60
2024/02/20 00:21:21;;;;;;;28.48;4.82;;;;;;;5.22;100.00;68962.53;5074136;28;20049;-61
2024/02/20 00:23:49;;;;;;;30.75;5.03;;;;;;;5.20;100.00;68968.00;5072588;28;20044;-60
2024/02/20 00:26:17;;;;;;;24.13;4.78;;;;;;;5.20;100.00;68965.97;5073004;28;20056;-61
2024/02/20 00:28:45;;;;;;;30.10;4.60;;;;;;;5.21;100.00;68964.56;5073725;28;20032;-61
2024/02/20 00:31:15;;;;;;;30.77;4.70;;;;;;;5.20;100.00;68968.00;5073566;28;20049;-61
2024/02/20 00:33:46;;;;;;;;;;;;;;;5.21;100.00;68964.56;5075015;28;20048;-61
2024/02/20 00:36:15;;;;;;;27.75;4.63;;;;;;;5.20;100.00;68962.81;5074497;28;19955;-61
2024/02/20 00:38:43;;;;;;;28.30;4.43;;;;;;;5.17;100.00;68961.94;5074210;28;20041;-60
2024/02/20 00:41:11;;;;;;;23.00;4.63;;;;;;;5.15;100.00;68960.16;5073377;28;20529;-61
2024/02/20 00:43:40;;;;;;;28.88;4.32;;;;;;;5.19;100.00;68962.22;5072131;28;20051;-61
2024/02/20 00:46:08;;;;;;;20.70;5.20;;;;;;;5.16;100.00;68958.75;5073358;28;20476;-61
2024/02/20 00:48:37;;;;;;;27.25;5.00;;;;;;;5.16;100.00;68960.75;5073609;28;20037;-60
2024/02/20 00:51:05;;;;;;;30.45;5.40;;;;;;;5.13;100.00;68955.25;5073391;28;20471;-60
2024/02/20 00:53:35;;;;;;;27.02;4.90;;;;;;;5.09;100.00;68950.63;5073237;28;20574;-60
2024/02/20 00:56:03;;;;;;;31.25;4.90;;;;;;;5.12;100.00;68953.53;5073032;28;20065;-60
2024/02/20 00:58:31;;;;;;;25.02;4.38;;;;;;;5.14;100.00;68953.25;5073554;28;20220;-60
2024/02/20 01:01:00;;;;;;;22.23;4.13;;;;;;;5.09;100.00;68950.63;5073469;28;20075;-60
2024/02/20 01:03:29;;;;;;;28.48;6.22;;;;;;;5.06;100.00;68947.72;5073563;28;20041;-60
2024/02/20 01:05:57;;;;;;;30.63;5.60;;;;;;;5.04;100.00;68942.22;5073496;28;20450;-60
2024/02/20 01:08:25;;;;;;;26.25;4.47;;;;;;;5.07;100.00;68948.88;5073650;28;20127;-60
2024/02/20 01:10:55;;;;;;;32.03;6.30;;;;;;;5.01;100.00;68946.50;5073115;28;20036;-60
2024/02/20 01:13:23;;;;;;;30.33;6.22;;;;;;;4.99;100.00;68933.81;5073504;28;20119;-51
2024/02/20 01:15:51;;;;;;;25.88;4.90;;;;;;;4.98;100.00;68940.44;5068574;28;20094;-51
2024/02/20 01:18:20;;;;;;;28.67;5.45;;;;;;;4.99;100.00;68939.59;5069759;28;20037;-49
2024/02/20 01:20:48;;;;;;;28.13;4.47;;;;;;;4.98;100.00;68940.44;5072894;28;20504;-51
2024/02/20 01:23:16;;;;;;;32.47;6.75;;;;;;;4.94;100.00;68930.59;5072951;28;20102;-51
2024/02/20 01:25:46;;;;;;;30.80;5.35;;;;;;;4.93;100.00;68929.44;5072996;28;20044;-52
2024/02/20 01:28:19;;;;;;;28.17;5.22;;;;;;;4.88;100.00;68929.97;5071360;28;20702;-60
2024/02/20 01:30:47;;;;;;;22.60;4.53;;;;;;;4.95;100.00;68934.94;5073315;28;20048;-60
2024/02/20 01:33:16;;;;;;;20.35;4.85;;;;;;;4.91;100.00;68933.44;5072956;28;20424;-60
2024/02/20 01:35:44;;;;;;;24.08;5.05;;;;;;;4.89;100.00;68931.13;5073311;28;20068;-60
2024/02/20 01:38:13;;;;;;;28.13;4.75;;;;;;;4.89;100.00;68928.56;5072914;28;20051;-60
2024/02/20 01:40:41;;;;;;;31.58;4.45;;;;;;;4.92;100.00;68931.44;5073006;28;20033;-60
2024/02/20 01:43:09;;;;;;;27.42;5.00;;;;;;;4.91;100.00;68933.44;5071764;28;20079;-60
2024/02/20 01:45:39;;;;;;;23.92;4.47;;;;;;;4.91;100.00;68932.88;5073074;28;20040;-60
2024/02/20 01:48:08;;;;;;;22.23;4.30;;;;;;;4.89;100.00;68925.38;5073092;28;20564;-61
2024/02/20 01:50:37;;;;;;;24.75;4.20;;;;;;;4.89;100.00;68931.13;5073264;28;20119;-60
2024/02/20 01:53:06;;;;;;;24.35;4.45;;;;;;;4.88;100.00;68929.97;5072923;28;20499;-60
2024/02/20 01:55:36;;;;;;;30.63;5.15;;;;;;;4.90;100.00;68931.72;5072867;28;20040;-60
2024/02/20 01:58:05;;;;;;;28.33;5.25;;;;;;;4.88;100.00;68927.38;5072666;28;20098;-60
2024/02/20 02:00:33;;;;;;;23.38;5.15;;;;;;;4.96;100.00;68933.50;5072892;28;20098;-61
2024/02/20 02:03:03;;;;;;;27.00;5.13;;;;;;;4.93;100.00;68932.59;5073062;28;20496;-62
2024/02/20 02:05:31;;;;;;;26.58;4.68;;;;;;;4.89;100.00;68931.13;5072839;28;20569;-61
2024/02/20 02:08:00;;;;;;;24.08;4.30;;;;;;;4.84;100.00;68922.75;5072533;28;20514;-61
2024/02/20 02:10:30;;;;;;;26.83;5.15;;;;;;;4.84;100.00;68922.75;5072688;28;20416;-61
2024/02/20 02:12:59;;;;;;;28.05;4.70;;;;;;;4.84;100.00;68922.16;5072481;28;20522;-61
2024/02/20 02:15:27;;;;;;;25.77;5.47;;;;;;;4.84;100.00;68925.31;5071851;28;20066;-61
2024/02/20 02:17:55;;;;;;;26.13;5.55;;;;;;;4.84;100.00;68922.16;5072966;28;20106;-61
2024/02/20 02:20:24;;;;;;;26.23;4.88;;;;;;;4.83;100.00;68921.56;5072735;28;20411;-61
2024/02/20 02:22:53;;;;;;;19.70;4.85;;;;;;;4.81;100.00;68914.06;5072921;28;20053;-60
2024/02/20 02:25:21;;;;;;;27.50;5.68;;;;;;;4.78;100.00;68920.34;5072838;28;20040;-61
2024/02/20 02:27:50;;;;;;;19.67;4.13;;;;;;;4.80;100.00;68917.50;5074929;28;20060;-61
2024/02/20 02:30:19;;;;;;;19.23;5.32;;;;;;;4.80;100.00;68918.09;5076941;28;20044;-61
2024/02/20 02:32:50;;;;;;;22.88;4.70;;;;;;;4.79;100.00;68916.34;5076753;28;20098;-60
2024/02/20 02:35:19;;;;;;;20.33;5.53;;;;;;;4.78;100.00;68915.75;5076623;28;20044;-61
2024/02/20 02:37:47;;;;;;;22.38;4.88;;;;;;;4.75;100.00;68912.28;5076506;28;20143;-61
2024/02/20 02:40:16;;;;;;;23.92;5.18;;;;;;;4.76;100.00;68913.44;5076445;28;20052;-60
2024/02/20 02:42:44;;;;;;;27.33;5.95;;;;;;;4.75;100.00;68912.28;5076364;28;20052;-60
2024/02/20 02:45:14;;;;;;;27.40;5.18;;;;;;;4.75;100.00;68912.28;5076204;28;20080;-61
2024/02/20 02:47:42;;;;;;;25.63;5.28;;;;;;;4.72;100.00;68911.38;5076293;28;20051;-61
2024/02/20 02:50:10;;;;;;;28.98;5.97;;;;;;;4.73;100.00;68907.34;5076122;28;20040;-61
2024/02/20 02:52:41;;;;;;;25.08;4.93;;;;;;;4.78;100.00;68918.34;5075969;28;20447;-60
2024/02/20 02:55:11;;;;;;;22.88;4.80;;;;;;;4.75;100.00;68909.69;5076110;28;20460;-60
2024/02/20 02:57:39;;;;;;;25.33;5.80;;;;;;;4.73;100.00;68907.34;5075804;28;20049;-60
2024/02/20 03:00:11;;;;;;;19.70;4.57;;;;;;;4.73;100.00;68909.94;5075859;28;20076;-60
2024/02/20 03:02:41;;;;;;;26.45;5.28;;;;;;;4.72;100.00;68908.81;5076045;28;20045;-60
2024/02/20 03:05:09;;;;;;;24.27;4.80;;;;;;;4.72;100.00;68906.78;5075439;28;20052;-61
2024/02/20 03:07:39;;;;;;;26.73;5.00;;;;;;;4.71;100.00;68907.63;5075901;28;20041;-60
2024/02/20 03:10:08;;;;;;;17.15;4.72;;;;;;;4.69;100.00;68907.88;5075684;28;20055;-60
2024/02/20 03:12:36;;;;;;;24.20;5.15;;;;;;;4.68;100.00;68901.56;5075836;28;20098;-61
2024/02/20 03:15:05;;;;;;;21.30;4.60;;;;;;;4.67;100.00;68905.56;5075659;28;20511;-60
2024/02/20 03:17:33;;;;;;;21.05;4.80;;;;;;;4.66;100.00;68901.81;5075734;28;20036;-61
2024/02/20 03:20:14;;;;;;;21.60;4.88;;;;;;;4.66;100.00;68904.41;5074503;28;20102;-61
2024/02/20 03:22:43;;;;;;;26.55;5.22;;;;;;;4.64;100.00;68900.09;5075036;28;20052;-61
2024/02/20 03:25:14;;;;;;;23.92;4.97;;;;;;;4.63;100.00;68900.94;5075148;28;20548;-61
2024/02/20 03:27:47;;;;;;;25.67;4.85;;;;;;;4.65;100.00;68900.66;5075914;28;20450;-61
2024/02/20 03:30:15;;;;;;;22.10;4.40;;;;;;;4.63;100.00;68898.34;5075325;28;20499;-61
2024/02/20 03:32:43;;;;;;;25.63;4.45;;;;;;;4.61;100.00;68896.59;5075606;28;20098;-60
2024/02/20 03:35:20;;;;;;;28.58;5.07;;;;;;;4.60;100.00;68892.28;5075495;28;20372;-62
2024/02/20 03:37:49;;;;;;;25.55;4.85;;;;;;;4.58;100.00;68895.69;5074286;28;20053;-61
2024/02/20 03:40:19;;;;;;;26.42;4.82;;;;;;;4.59;100.00;68893.69;5074945;28;20044;-61
2024/02/20 03:42:49;;;;;;;19.95;4.40;;;;;;;4.60;100.00;68894.88;5075432;28;20422;-60
2024/02/20 03:45:17;;;;;;;27.70;5.03;;;;;;;4.57;100.00;68891.97;5075512;28;20048;-61
2024/02/20 03:47:46;;;;;;;30.55;5.75;;;;;;;4.59;100.00;68891.69;5075522;28;20048;-60
2024/02/20 03:50:16;;;;;;;26.65;5.13;;;;;;;4.55;100.00;68890.22;5075284;28;20140;-60
2024/02/20 03:52:44;;;;;;;25.25;5.00;;;;;;;4.55;100.00;68892.22;5075284;28;20545;-61
2024/02/20 03:55:13;;;;;;;22.42;5.25;;;;;;;4.55;100.00;68887.63;5075023;28;20123;-61
2024/02/20 03:57:41;;;;;;;19.10;4.05;;;;;;;4.55;100.00;68890.22;5075227;28;20479;-61
2024/02/20 04:00:11;;;;;;;26.52;5.30;;;;;;;4.55;100.00;68889.63;5075005;28;20044;-61
2024/02/20 04:02:42;;;;;;;29.75;5.43;;;;;;;4.57;100.00;68892.53;5074991;28;20484;-61
2024/02/20 04:05:12;;;;;;;23.38;4.78;;;;;;;4.56;100.00;68890.78;5074884;28;20044;-61
2024/02/20 04:07:46;;;;;;;23.42;5.45;;;;;;;4.54;100.00;68888.47;5074817;28;20044;-61
2024/02/20 04:10:16;;;;;;;26.25;4.53;;;;;;;4.51;100.00;68885.56;5074682;28;20076;-60
2024/02/20 04:12:44;;;;;;;23.80;4.93;;;;;;;4.53;100.00;68887.31;5074631;28;20056;-60
2024/02/20 04:15:14;;;;;;;26.85;4.40;;;;;;;4.52;100.00;68891.88;5073424;28;20384;-60
2024/02/20 04:17:43;;;;;;;26.15;4.82;;;;;;;4.52;100.00;68886.72;5074607;28;20123;-61
2024/02/20 04:20:11;;;;;;;24.52;4.38;;;;;;;4.54;100.00;68888.47;5074444;28;20032;-61
2024/02/20 04:22:42;;;;;;;20.95;5.22;;;;;;;4.53;100.00;68887.88;5074327;28;20381;-61
2024/02/20 04:25:12;;;;;;;24.35;5.25;;;;;;;4.51;100.00;68883.00;5074361;28;20063;-51
2024/02/20 04:27:40;;;;;;;20.65;5.05;;;;;;;4.48;100.00;68884.66;5069794;28;20056;-50
2024/02/20 04:30:09;;;;;;;20.52;4.47;;;;;;;4.48;100.00;68882.06;5070373;28;20047;-48
2024/02/20 04:32:38;;;;;;;24.38;3.90;;;;;;;4.47;100.00;68878.34;5071072;28;20117;-50
2024/02/20 04:35:07;;;;;;;27.00;5.10;;;;;;;4.46;100.00;68879.16;5071336;28;20056;-49
2024/02/20 04:37:36;;;;;;;15.57;4.30;;;;;;;4.44;100.00;68876.84;5071529;28;20052;-49
2024/02/20 04:40:07;;;;;;;26.73;4.05;;;;;;;4.45;100.00;68876.00;5069687;28;20131;-52
2024/02/20 04:42:37;;;;;;;18.05;4.32;;;;;;;4.42;100.00;68877.69;5068045;28;20056;-49
2024/02/20 04:45:06;;;;;;;23.63;5.07;;;;;;;4.40;100.00;68872.78;5070181;28;20082;-50
2024/02/20 04:47:34;;;;;;;21.23;4.85;;;;;;;4.41;100.00;68873.94;5071546;28;20045;-49
2024/02/20 04:50:03;;;;;;;23.23;5.60;;;;;;;4.40;100.00;68875.38;5070735;28;20117;-49
2024/02/20 04:52:31;;;;;;;25.90;5.43;;;;;;;4.40;100.00;68872.78;5069792;28;20444;-49
2024/02/20 04:54:59;;;;;;;25.95;5.75;;;;;;;4.40;100.00;68875.38;5069589;28;20049;-52
2024/02/20 04:57:28;;;;;;;22.77;5.47;;;;;;;4.39;100.00;68871.63;5068936;28;20040;-49
2024/02/20 05:00:00;;;;;;;22.45;5.60;;;;;;;4.38;100.00;68873.06;5070259;28;20087;-52
2024/02/20 05:02:30;;;;;;;23.20;5.80;;;;;;;4.35;100.00;68867.56;5072448;28;20052;-61
2024/02/20 05:04:58;;;;;;;29.45;7.07;;;;;;;4.36;100.00;68870.72;5072654;28;20505;-49
2024/02/20 05:07:26;;;;;;;30.52;8.32;;;;;;;4.35;100.00;68866.97;5069765;28;20338;-49
2024/02/20 05:09:55;;;;;;;33.22;7.88;;;;;;;4.35;100.00;68869.56;5069667;28;20053;-49
2024/02/20 05:12:26;;;;;;;27.33;7.90;;;;;;;4.36;100.00;68871.31;5071928;28;20090;-61
2024/02/20 05:14:54;;;;;;;27.05;8.13;;;;;;;4.35;100.00;68866.97;5073353;28;20124;-61
2024/02/20 05:17:26;;;;;;;33.30;8.65;;;;;;;4.36;100.00;68868.13;5073892;28;20045;-61
2024/02/20 05:19:54;;;;;;;21.92;7.75;;;;;;;4.35;100.00;68870.16;5073176;28;20040;-61
2024/02/20 05:22:22;;;;;;;26.52;8.07;;;;;;;4.35;100.00;68866.97;5073535;28;20040;-61
2024/02/20 05:24:54;;;;;;;24.92;8.10;;;;;;;4.34;100.00;68863.81;5073092;28;20127;-60
2024/02/20 05:27:23;;;;;;;22.48;7.55;;;;;;;4.35;100.00;68867.56;5067638;28;20067;-57
2024/02/20 05:29:54;;;;;;;30.25;8.13;;;;;;;4.34;100.00;68865.81;5072282;28;20044;-50
2024/02/20 05:32:22;;;;;;;26.17;7.35;;;;;;;4.35;100.00;68872.13;5071999;28;20055;-48
2024/02/20 05:34:51;;;;;;;32.85;8.77;;;;;;;4.33;100.00;68864.66;5069948;28;20062;-59
2024/02/20 05:37:19;;;;;;;29.40;8.70;;;;;;;4.33;100.00;68864.66;5073128;28;20406;-49
2024/02/20 05:39:47;;;;;;;23.92;8.20;;;;;;;4.34;100.00;68865.81;5071604;28;20471;-51
2024/02/20 05:42:16;;;;;;;31.15;8.88;;;;;;;4.33;100.00;68862.66;5071636;28;20051;-49
2024/02/20 05:44:44;;;;;;;20.83;6.65;;;;;;;4.34;100.00;68866.41;5072861;28;20040;-50
2024/02/20 05:47:12;;;;;;;24.45;7.57;;;;;;;4.34;100.00;68868.41;5072796;28;20135;-50
2024/02/20 05:49:40;;;;;;;27.70;9.20;;;;;;;4.33;100.00;68865.22;5072665;28;20396;-49
2024/02/20 05:52:11;;;;;;;28.70;8.60;;;;;;;4.34;100.00;68865.81;5072553;28;20391;-50
2024/02/20 05:54:42;;;;;;;32.22;8.05;;;;;;;4.34;100.00;68868.41;5071516;28;20119;-50
2024/02/20 05:57:10;;;;;;;31.70;8.02;;;;;;;4.35;100.00;68866.97;5068145;28;20045;-48
2024/02/20 05:59:39;;;;;;;25.90;7.78;;;;;;;4.37;100.00;68871.88;5069816;28;20044;-60
2024/02/20 06:02:07;;;;;;;24.73;7.45;;;;;;;4.38;100.00;68873.06;5071247;28;20052;-51
2024/02/20 06:04:35;;;;;;;20.80;5.93;;;;;;;4.39;100.00;68871.63;5068619;28;20057;-48
2024/02/20 06:07:03;;;;;;;20.60;5.90;;;;;;;4.40;100.00;68872.78;5069403;28;20072;-49
2024/02/20 06:09:33;;;;;;;23.92;6.03;;;;;;;4.41;100.00;68876.53;5068309;28;20106;-47
2024/02/20 06:12:06;;;;;;;23.45;6.75;;;;;;;4.42;100.00;68875.13;5068330;28;20044;-49
2024/02/20 06:14:34;;;;;;;28.67;7.50;;;;;;;4.42;100.00;68877.09;5068824;28;20523;-54
2024/02/20 06:17:03;;;;;;;27.95;7.93;;;;;;;4.44;100.00;68874.84;5069443;28;20495;-48
2024/02/20 06:19:31;;;;;;;24.98;7.57;;;;;;;4.44;100.00;68885.19;5070621;28;20049;-47
2024/02/20 06:21:59;;;;;;;26.20;8.40;;;;;;;4.43;100.00;68873.69;5072557;28;20040;-60
2024/02/20 06:24:27;;;;;;;25.63;8.90;;;;;;;4.45;100.00;68878.03;5069624;28;20040;-47
2024/02/20 06:26:57;;;;;;;35.45;9.35;;;;;;;4.46;100.00;68884.94;5071550;28;20048;-48
2024/02/20 06:29:25;;;;;;;31.40;10.20;;;;;;;4.48;100.00;68886.66;5068575;28;20068;-49
2024/02/20 06:31:56;;;;;;;23.52;9.63;;;;;;;4.49;100.00;68880.66;5071256;28;20488;-59
2024/02/20 06:34:24;;;;;;;29.60;10.05;;;;;;;4.48;100.00;68886.66;5073096;28;20048;-60
2024/02/20 06:36:53;;;;;;;28.02;9.30;;;;;;;4.47;100.00;68880.94;5072018;28;20051;-60
2024/02/20 06:39:21;;;;;;;26.50;9.60;;;;;;;4.46;100.00;68879.75;5069732;28;20057;-53
2024/02/20 06:41:49;;;;;;;22.50;8.80;;;;;;;4.46;100.00;68879.75;5069736;28;20056;-61
2024/02/20 06:44:18;;;;;;;27.20;9.95;;;;;;;4.46;100.00;68876.59;5070721;28;20051;-53
2024/02/20 06:46:46;;;;;;;28.17;10.15;;;;;;;4.44;100.00;68876.84;5070206;28;20403;-52
2024/02/20 06:49:14;;;;;;;26.00;9.55;;;;;;;4.43;100.00;68876.28;5068683;28;20037;-51
2024/02/20 06:51:43;;;;;;;32.90;10.18;;;;;;;4.42;100.00;68877.09;5068920;28;20544;-53
2024/02/20 06:54:11;;;;;;;24.88;10.38;;;;;;;4.41;100.00;68879.13;5070844;28;20048;-50
2024/02/20 06:56:39;;;;;;;29.83;10.98;;;;;;;4.42;100.00;68875.13;5067378;28;20094;-49
2024/02/20 06:59:07;;;;;;;28.98;11.07;;;;;;;4.40;100.00;68875.97;5068108;28;20040;-50
2024/02/20 07:01:37;;;;;;;24.77;10.43;;;;;;;4.40;100.00;68875.38;5068907;28;20047;-50
2024/02/20 07:04:05;;;;;;;25.75;11.45;;;;;;;4.39;100.00;68869.63;5068135;28;20048;-51
2024/02/20 07:06:38;;;;;;;22.67;9.73;;;;;;;4.40;100.00;68870.19;5068985;28;20036;-50
2024/02/20 07:09:06;;;;;;;24.10;11.05;;;;;;;4.40;100.00;68872.78;5068518;28;20109;-49
2024/02/20 07:11:34;;;;;;;27.83;9.80;;;;;;;4.39;100.00;68871.63;5069463;28;20470;-51
2024/02/20 07:14:02;;;;;;;27.80;10.32;;;;;;;4.39;100.00;68872.22;5073685;28;20127;-48
2024/02/20 07:16:29;;;;;;;28.33;9.95;;;;;;;4.41;100.00;68871.38;5070541;28;20051;-49
2024/02/20 07:18:59;;;;;;;27.20;10.18;;;;;;;4.40;100.00;68873.38;5071145;28;20048;-53
2024/02/20 07:21:27;;;;;;;32.42;10.52;;;;;;;4.41;100.00;68879.13;5070584;28;20048;-49
2024/02/20 07:23:56;;;;;;;28.05;10.35;;;;;;;4.42;100.00;68877.69;5071502;28;20090;-50
2024/02/20 07:26:26;;;;;;;23.02;9.07;;;;;;;4.42;100.00;68875.13;5069581;28;20040;-51
2024/02/20 07:28:55;;;;;;;33.63;9.23;;;;;;;4.42;100.00;68877.09;5071763;28;20056;-49
2024/02/20 07:31:24;;;;;;;29.20;9.68;;;;;;;4.43;100.00;68876.28;5071204;28;20040;-52
2024/02/20 07:33:52;;;;;;;29.98;9.18;;;;;;;4.45;100.00;68876.00;5071827;28;20044;-50
2024/02/20 07:36:37;;;;;;;22.48;8.18;;;;;;;4.49;100.00;68883.25;5071625;28;20046;-50
2024/02/20 07:39:05;;;;;;;28.13;8.20;;;;;;;4.55;100.00;68890.22;5070238;28;20045;-49
2024/02/20 07:41:34;;;;;;;21.83;6.65;;;;;;;4.60;100.00;68898.03;5069949;28;20067;-50
2024/02/20 07:44:02;;;;;;;25.30;7.35;;;;;;;4.65;100.00;68898.06;5074784;28;20048;-50
2024/02/20 07:46:32;;;;;;;21.45;6.70;;;;;;;4.71;100.00;68907.63;5074856;28;20468;-52
2024/02/20 07:49:01;;;;;;;24.40;8.63;;;;;;;4.76;100.00;68912.84;5072616;28;20076;-53
2024/02/20 07:51:31;;;;;;;30.15;10.98;;;;;;;4.81;100.00;68924.41;5069611;28;20052;-51
2024/02/20 07:54:01;;;;;;;32.25;11.75;;;;;;;4.87;100.00;68923.63;5070269;28;20089;-51
2024/02/20 07:56:30;;;;;;;37.45;15.45;;;;;;;4.97;100.00;68937.25;5070130;28;20055;-51
2024/02/20 07:58:58;;;;;;;44.42;17.50;;;;;;;5.00;100.00;68942.75;5073681;28;20514;-50
2024/02/20 08:01:26;;;;;;;30.00;14.50;;;;;;;5.08;100.00;68952.03;5071340;28;20101;-50
2024/02/20 08:03:55;;;;;;;34.28;12.82;;;;;;;5.12;100.00;68954.09;5073067;28;20541;-51
2024/02/20 08:06:24;;;;;;;37.80;10.50;;;;;;;5.17;100.00;68962.50;5074459;28;20064;-49
2024/02/20 08:08:52;;;;;;;24.88;7.70;;;;;;;5.22;100.00;68960.56;5073057;28;20056;-49
2024/02/20 08:11:22;;;;;;;28.75;7.35;;;;;;;5.29;100.00;68972.69;5074357;28;20041;-48
2024/02/20 08:13:50;;;;;;;29.98;8.18;;;;;;;5.33;100.00;68977.34;5072786;28;20068;-52
2024/02/20 08:16:18;;;;;;;26.23;7.50;;;;;;;5.36;100.00;68984.00;5070213;28;20052;-52
2024/02/20 08:18:48;;;;;;;28.70;7.53;;;;;;;5.44;100.00;68986.94;5070644;28;20060;-50
2024/02/20 08:21:16;;;;;;;26.88;7.30;;;;;;;5.48;100.00;68994.78;5070155;28;20048;-52
2024/02/20 08:23:44;;;;;;;32.05;7.03;;;;;;;5.51;100.00;69000.84;5070247;28;20118;-53
2024/02/20 08:26:13;;;;;;;34.33;8.00;;;;;;;5.54;100.00;69001.16;5070138;28;20048;-52
2024/02/20 08:28:42;;;;;;;25.38;8.75;;;;;;;5.58;100.00;69003.81;5070697;28;20052;-51
2024/02/20 08:31:11;;;;;;;32.25;8.50;;;;;;;5.64;100.00;69012.78;5070301;28;20040;-48
2024/02/20 08:33:41;;;;;;;28.10;7.72;;;;;;;5.68;100.00;69012.25;5070841;28;20048;-48
2024/02/20 08:36:10;;;;;;;31.10;8.20;;;;;;;5.75;100.00;69027.59;5070062;28;20127;-51
2024/02/20 08:38:41;;;;;;;24.00;6.97;;;;;;;5.79;100.00;69032.22;5070611;28;20071;-48
2024/02/20 08:41:09;;;;;;;28.25;8.38;;;;;;;5.83;100.00;69031.69;5073785;28;20416;-49
2024/02/20 08:43:37;;;;;;;29.35;7.55;;;;;;;5.89;100.00;69041.28;5073900;28;20055;-49
2024/02/20 08:46:07;;;;;;;30.40;7.97;;;;;;;5.97;100.00;69049.41;5072996;28;20496;-52
2024/02/20 08:48:36;;;;;;;31.73;7.78;;;;;;;5.98;100.00;69053.19;5069327;28;20484;-52
2024/02/20 08:51:05;;;;;;;30.05;7.40;;;;;;;6.04;100.00;69060.16;5070331;28;20051;-51
2024/02/20 08:53:33;;;;;;;31.52;7.53;;;;;;;6.06;100.00;69059.91;5072126;28;20053;-49
2024/02/20 08:56:01;;;;;;;24.13;8.30;;;;;;;6.13;100.00;69070.06;5069536;28;20105;-51
2024/02/20 08:58:29;;;;;;;25.33;7.30;;;;;;;6.18;100.00;69079.03;5072878;28;20530;-49
2024/02/20 09:00:57;;;;;;;28.02;8.48;;;;;;;6.22;100.00;69075.91;5068732;28;20571;-48
2024/02/20 09:03:31;;;;;;;31.83;8.43;;;;;;;6.26;100.00;69085.75;5069956;28;20488;-51
2024/02/20 09:05:59;;;;;;;22.45;7.15;;;;;;;6.36;100.00;69091.03;5070111;28;20052;-51
2024/02/20 09:08:29;;;;;;;20.38;7.32;;;;;;;6.43;100.00;69101.75;5070530;28;20373;-51
2024/02/20 09:11:03;;;;;;;29.08;7.05;;;;;;;6.50;100.00;69109.31;5068578;28;20047;-53
2024/02/20 09:13:34;;;;;;;29.75;8.10;;;;;;;6.57;100.00;69114.88;5069224;28;20471;-50
2024/02/20 09:16:03;;;;;;;32.47;7.15;;;;;;;6.62;100.00;69125.88;5068864;28;20044;-52
2024/02/20 09:18:36;;;;;;;26.48;7.10;;;;;;;6.71;100.00;69131.16;5069021;28;20087;-51
2024/02/20 09:21:04;;;;;;;;;;;;;;;6.75;100.00;69138.41;5071840;28;20101;-49
2024/02/20 09:23:36;;;;;;;33.75;7.10;;;;;;;6.78;100.00;69138.72;5073259;28;20033;-52
2024/02/20 09:26:05;;;;;;;28.45;7.78;;;;;;;6.87;100.00;69151.22;5071658;28;20063;-49
2024/02/20 09:28:37;;;;;;;;;;;;;;;6.91;100.00;69153.88;5073563;28;20115;-51
2024/02/20 09:31:05;;;;;;;31.85;7.85;;;;;;;6.98;100.00;69158.25;5070864;28;19920;-51
2024/02/20 09:33:34;;;;;;;28.35;7.82;;;;;;;7.02;100.00;69168.69;5069731;28;20426;-52
2024/02/20 09:36:04;;;;;;;24.38;7.47;;;;;;;7.07;100.00;69166.13;5071012;28;20064;-51
2024/02/20 09:38:32;;;;;;;23.35;6.95;;;;;;;7.10;100.00;69177.41;5069697;28;20819;-52
2024/02/20 09:41:01;;;;;;;26.83;7.35;;;;;;;7.12;100.00;69174.53;5069526;28;20048;-52
2024/02/20 09:43:31;;;;;;;25.75;7.70;;;;;;;7.14;100.00;69181.47;5071136;28;20040;-53
2024/02/20 09:46:07;;;;;;;23.67;6.85;;;;;;;7.19;100.00;69187.88;5069715;28;20547;-51
2024/02/20 09:48:36;;;;;;;25.17;7.50;;;;;;;7.23;100.00;69194.56;5070391;28;20053;-50
2024/02/20 09:51:07;;;;;;;22.50;7.38;;;;;;;7.28;100.00;69198.34;5069418;28;20060;-51
2024/02/20 09:53:39;;;;;;;20.95;7.03;;;;;;;7.35;100.00;69205.91;5069376;28;20040;-52
2024/02/20 09:56:08;;;;;;;24.90;7.40;;;;;;;7.42;100.00;69214.06;5068000;28;20053;-52
2024/02/20 09:58:36;;;;;;;29.15;8.15;;;;;;;7.48;100.00;69217.88;5069194;28;20094;-50
2024/02/20 10:01:05;;;;;;;24.10;7.63;;;;;;;7.53;100.00;69223.13;5069584;28;20044;-52
2024/02/20 10:03:36;;;;;;;27.15;7.63;;;;;;;7.61;100.00;69235.59;5069195;28;20119;-50
2024/02/20 10:06:08;;;;;;;28.50;7.57;;;;;;;7.66;100.00;69237.66;5069399;28;20067;-50
2024/02/20 10:08:36;;;;;;;22.33;6.32;;;;;;;7.73;100.00;69248.41;5072637;28;20119;-49
2024/02/20 10:11:06;;;;;;;32.38;7.50;;;;;;;7.78;100.00;69254.81;5072398;28;20059;-48
2024/02/20 10:13:43;;;;;;;22.23;7.32;;;;;;;7.84;100.00;69252.84;5072604;28;20109;-50
2024/02/20 10:16:13;;;;;;;29.63;7.63;;;;;;;7.88;100.00;69265.28;5067511;28;20428;-52
2024/02/20 10:18:41;;;;;;;23.67;7.35;;;;;;;8.00;100.00;69281.28;5069134;28;20083;-51
2024/02/20 10:21:13;;;;;;;27.13;8.27;;;;;;;8.05;100.00;69287.13;5068515;28;20052;-51
2024/02/20 10:23:41;;;;;;;30.42;7.07;;;;;;;8.12;100.00;69293.25;5069564;28;20098;-52
2024/02/20 10:26:11;;;;;;;26.63;7.00;;;;;;;8.18;100.00;69294.47;5071017;28;20098;-53
2024/02/20 10:28:40;;;;;;;26.90;7.38;;;;;;;8.16;100.00;69294.72;5072151;28;20079;-53
2024/02/20 10:31:08;;;;;;;23.67;7.18;;;;;;;8.25;100.00;69307.81;5069266;28;20044;-48
2024/02/20 10:33:38;;;;;;;25.65;7.00;;;;;;;8.32;100.00;69318.00;5070195;28;20400;-48
2024/02/20 10:36:07;;;;;;;24.75;7.15;;;;;;;8.41;100.00;69327.88;5070072;28;20044;-51
2024/02/20 10:38:36;;;;;;;26.42;7.47;;;;;;;8.50;100.00;69333.19;5069046;28;20858;-53
2024/02/20 10:41:09;;;;;;;31.38;7.15;;;;;;;8.59;100.00;69346.28;5067889;28;20056;-52
2024/02/20 10:43:38;;;;;;;27.60;7.72;;;;;;;8.63;100.00;69348.34;5068674;28;20381;-52
2024/02/20 10:46:07;;;;;;;27.83;7.38;;;;;;;8.70;100.00;69358.53;5068327;28;20403;-53
2024/02/20 10:48:36;;;;;;;26.23;6.55;;;;;;;8.76;100.00;69362.31;5071872;28;20561;-52
2024/02/20 10:51:05;;;;;;;24.30;6.68;;;;;;;8.83;100.00;69373.09;5072047;28;20504;-52
2024/02/20 10:53:34;;;;;;;27.13;7.10;;;;;;;8.90;100.00;69378.06;5072526;28;20487;-50
2024/02/20 10:56:05;;;;;;;27.35;7.60;;;;;;;8.93;100.00;69384.16;5069926;28;20064;-52
2024/02/20 10:58:39;;;;;;;23.77;6.85;;;;;;;8.98;100.00;69384.19;5072151;28;20414;-49
2024/02/20 11:01:11;;;;;;;20.70;6.63;;;;;;;9.00;100.00;69387.13;5072597;28;20398;-52
2024/02/20 11:03:40;;;;;;;26.08;7.43;;;;;;;9.03;100.00;69393.22;5075585;28;20420;-47
2024/02/20 11:06:26;;;;;;;24.85;7.05;;;;;;;9.06;100.00;69398.72;5071863;28;20906;-49
2024/02/20 11:09:06;;;;;;;21.83;6.93;;;;;;;9.12;100.00;69408.31;5072576;28;20503;-48
2024/02/20 11:11:36;;;;;;;26.17;7.47;;;;;;;9.16;100.00;69409.81;5070896;28;20040;-52
2024/02/20 11:14:04;;;;;;;29.38;8.30;;;;;;;9.24;100.00;69419.13;5074660;28;20499;-50
2024/02/20 11:16:34;;;;;;;27.40;7.60;;;;;;;9.22;100.00;69420.00;5075701;28;20055;-61
2024/02/20 11:19:03;;;;;;;29.60;7.53;;;;;;;9.28;100.00;69424.38;5072734;28;20143;-62
2024/02/20 11:21:33;;;;;;;31.10;8.55;;;;;;;9.34;100.00;69433.41;5072458;28;20056;-50
2024/02/20 11:24:12;;;;;;;20.30;7.30;;;;;;;9.35;100.00;69434.56;5071875;28;20036;-50
2024/02/20 11:26:47;;;;;;;25.50;7.55;;;;;;;9.33;100.00;69426.44;5071554;28;20072;-62
2024/02/20 11:29:26;;;;;;;24.20;7.75;;;;;;;9.33;100.00;69426.44;5074319;28;20124;-62
2024/02/20 11:31:55;;;;;;;31.60;8.52;;;;;;;9.41;100.00;69433.75;5072694;28;20052;-62
2024/02/20 11:34:27;;;;;;;21.55;7.32;;;;;;;9.39;100.00;69439.22;5071523;28;20483;-61
2024/02/20 11:36:55;;;;;;;;;;;;;;;9.48;100.00;69447.09;5071448;28;20056;-62